createdAt,value
2019-01-26T05:02:11.206Z,1.20
2019-01-26T05:04:33.677Z,1.30
2019-01-26T05:06:56.123Z,1.30
2019-01-26T05:09:18.620Z,1.40
2019-01-26T05:11:41.167Z,1.40
2019-01-26T05:14:03.862Z,1.50
2019-01-26T06:00:13.432Z,1.70
2019-01-26T06:02:35.903Z,1.70
2019-01-26T06:04:58.436Z,1.80
2019-01-26T06:07:20.850Z,1.80
2019-01-26T06:09:55.869Z,1.90
2019-01-26T06:12:30.835Z,1.90
2019-01-26T07:01:21.496Z,2.40
2019-01-26T07:03:44.062Z,2.30
2019-01-26T07:06:16.236Z,2.30
2019-01-26T07:08:38.676Z,2.30
2019-01-26T07:11:02.176Z,2.30
2019-01-26T07:13:24.784Z,2.40
2019-01-26T08:02:20.057Z,2.70
2019-01-26T08:04:42.502Z,2.70
2019-01-26T08:07:04.955Z,2.80
2019-01-26T08:09:27.376Z,2.80
2019-01-26T08:11:49.833Z,2.80
2019-01-26T08:14:12.242Z,2.90
2019-01-26T09:00:17.835Z,3.60
2019-01-26T09:03:05.726Z,3.70
2019-01-26T09:05:30.967Z,3.80
2019-01-26T09:07:53.402Z,3.90
2019-01-26T09:10:16.931Z,4.00
2019-01-26T09:12:39.397Z,4.10
2019-01-26T09:15:01.854Z,4.10
2019-01-26T10:01:01.109Z,4.70
2019-01-26T10:03:23.750Z,4.70
2019-01-26T10:05:46.463Z,4.80
2019-01-26T10:08:09.264Z,4.80
2019-01-26T10:10:33.870Z,4.80
2019-01-26T10:12:56.808Z,4.90
2019-01-26T11:02:37.831Z,5.70
2019-01-26T11:05:00.895Z,5.60
2019-01-26T11:07:23.506Z,5.60
2019-01-26T11:09:46.143Z,5.70
2019-01-26T11:12:08.961Z,5.70
2019-01-26T11:14:31.567Z,5.70
2019-01-26T12:01:10.643Z,9.00
2019-01-26T12:04:08.376Z,8.90
2019-01-26T12:06:48.312Z,9.50
2019-01-26T12:09:22.883Z,10.30
2019-01-26T12:11:47.420Z,9.90
2019-01-26T12:14:10.082Z,9.70
2019-01-26T12:19:23.424Z,9.30
2019-01-26T12:21:45.858Z,8.80
2019-01-26T12:24:08.418Z,8.70
2019-01-26T12:26:31.107Z,8.50
2019-01-26T12:28:53.884Z,8.20
2019-01-26T12:31:16.540Z,8.10
2019-01-26T12:33:39.201Z,7.80
2019-01-26T12:36:01.928Z,7.80
2019-01-26T12:38:25.512Z,8.50
2019-01-26T12:40:48.250Z,9.00
2019-01-26T12:43:12.037Z,9.30
2019-01-26T12:45:34.614Z,8.90
2019-01-26T12:47:57.189Z,8.40
2019-01-26T12:50:19.654Z,8.00
2019-01-26T12:52:42.184Z,7.80
2019-01-26T12:55:04.997Z,7.60
2019-01-26T12:57:27.414Z,7.40
2019-01-26T12:59:51.982Z,7.30
2019-01-26T13:02:14.940Z,7.30
2019-01-26T13:04:37.658Z,7.20
2019-01-26T13:07:00.862Z,7.20
2019-01-26T13:09:24.406Z,7.20
2019-01-26T13:11:50.747Z,7.20
2019-01-26T13:14:16.947Z,7.20
2019-01-26T14:01:21.893Z,7.30
2019-01-26T14:03:44.402Z,7.20
2019-01-26T14:06:06.930Z,7.10
2019-01-26T14:08:29.467Z,7.10
2019-01-26T14:10:51.922Z,7.00
2019-01-26T14:13:14.368Z,7.00
2019-01-26T14:18:27.626Z,6.80
2019-01-26T14:20:50.097Z,6.80
2019-01-26T14:23:13.730Z,6.80
2019-01-26T14:25:36.371Z,6.80
2019-01-26T14:27:58.827Z,6.90
2019-01-26T14:30:26.955Z,6.90
2019-01-26T14:32:52.564Z,6.90
2019-01-26T14:35:13.813Z,6.90
2019-01-26T14:37:36.449Z,6.80
2019-01-26T14:39:58.889Z,6.70
2019-01-26T14:42:22.526Z,6.70
2019-01-26T14:44:45.062Z,6.50
2019-01-26T14:47:07.535Z,6.50
2019-01-26T14:49:30.657Z,6.40
2019-01-26T14:51:53.135Z,6.40
2019-01-26T14:54:15.866Z,6.30
2019-01-26T14:56:38.417Z,6.30
2019-01-26T14:59:00.922Z,6.30
2019-01-26T15:01:23.509Z,6.30
2019-01-26T15:03:46.131Z,6.40
2019-01-26T15:06:08.610Z,6.30
2019-01-26T15:08:31.073Z,6.30
2019-01-26T15:10:53.609Z,6.20
2019-01-26T15:13:18.186Z,6.20
2019-01-26T16:02:36.655Z,5.30
2019-01-26T16:04:59.188Z,5.20
2019-01-26T16:07:21.751Z,5.20
2019-01-26T16:09:44.475Z,5.20
2019-01-26T16:12:07.709Z,5.20
2019-01-26T16:14:32.335Z,5.10
2019-01-26T17:00:51.559Z,4.80
2019-01-26T17:03:14.123Z,4.80
2019-01-26T17:05:36.773Z,4.80
2019-01-26T17:08:00.457Z,4.80
2019-01-26T18:00:56.126Z,4.20
2019-01-26T18:03:18.651Z,4.20
2019-01-26T18:05:41.163Z,4.20
2019-01-26T18:08:03.643Z,4.20
2019-01-26T18:10:26.281Z,4.20
2019-01-26T18:12:48.829Z,4.20
2019-01-26T19:02:31.470Z,3.90
2019-01-26T19:04:59.374Z,3.90
2019-01-26T19:07:21.911Z,3.90
2019-01-26T19:09:44.434Z,3.90
2019-01-26T19:12:07.419Z,3.90
2019-01-26T19:14:30.062Z,3.80
2019-01-26T20:00:40.267Z,3.50
2019-01-26T20:03:02.822Z,3.50
2019-01-26T20:05:25.382Z,3.40
2019-01-26T20:07:47.936Z,3.50
2019-01-26T20:10:10.985Z,3.50
2019-01-26T20:12:33.509Z,3.50
2019-01-26T20:14:56.804Z,3.50
2019-01-26T21:02:35.079Z,3.10
2019-01-26T21:04:57.517Z,3.10
2019-01-26T21:07:19.983Z,3.20
2019-01-26T21:09:42.406Z,3.20
2019-01-26T21:12:04.846Z,3.20
2019-01-26T21:14:27.404Z,3.20
